createdAt,value
2019-02-28T00:00:40.521Z,0.00
2019-02-28T00:01:37.141Z,0.00
2019-02-28T00:02:37.053Z,0.00
2019-02-28T00:03:36.995Z,0.00
2019-02-28T00:04:36.891Z,0.00
2019-02-28T00:05:38.010Z,0.00
2019-02-28T00:06:36.728Z,0.00
2019-02-28T00:07:36.642Z,0.00
2019-02-28T00:08:36.553Z,0.00
2019-02-28T00:09:36.466Z,0.00
2019-02-28T00:10:36.394Z,0.00
2019-02-28T00:11:39.157Z,0.00
2019-02-28T00:12:36.217Z,0.00
2019-02-28T00:13:36.129Z,0.00
2019-02-28T00:14:36.054Z,0.00
2019-02-28T00:15:35.967Z,0.00
2019-02-28T00:16:36.373Z,0.00
2019-02-28T00:17:35.796Z,0.00
2019-02-28T00:18:35.723Z,0.00
2019-02-28T00:19:35.630Z,0.00
2019-02-28T00:20:36.632Z,0.00
2019-02-28T00:21:37.346Z,0.00
2019-02-28T00:22:35.380Z,0.00
2019-02-28T00:23:35.292Z,0.00
2019-02-28T00:24:35.205Z,0.00
2019-02-28T00:25:37.794Z,0.00
2019-02-28T00:26:35.043Z,0.00
2019-02-28T00:27:34.956Z,0.00
2019-02-28T00:28:34.868Z,0.00
2019-02-28T00:29:34.794Z,0.00
2019-02-28T00:30:37.299Z,0.00
2019-02-28T00:31:34.622Z,0.00
2019-02-28T00:32:34.531Z,0.00
2019-02-28T00:33:34.456Z,0.00
2019-02-28T00:34:36.320Z,0.00
2019-02-28T00:35:34.281Z,0.00
2019-02-28T00:36:34.196Z,0.00
2019-02-28T00:37:34.119Z,0.00
2019-02-28T00:38:34.032Z,0.00
2019-02-28T00:39:34.776Z,0.00
2019-02-28T00:40:33.857Z,0.00
2019-02-28T00:41:34.032Z,0.00
2019-02-28T00:42:33.695Z,0.00
2019-02-28T00:43:33.607Z,0.00
2019-02-28T00:44:33.520Z,0.00
2019-02-28T00:45:36.005Z,0.00
2019-02-28T00:46:33.360Z,0.00
2019-02-28T00:47:33.273Z,0.00
2019-02-28T00:48:33.183Z,0.00
2019-02-28T00:49:33.107Z,0.00
2019-02-28T00:50:33.021Z,0.00
2019-02-28T00:51:32.933Z,0.00
2019-02-28T00:52:35.388Z,0.00
2019-02-28T00:53:32.771Z,0.00
2019-02-28T00:54:32.683Z,0.00
2019-02-28T00:55:32.597Z,0.00
2019-02-28T00:56:32.508Z,0.00
2019-02-28T00:57:32.433Z,0.00
2019-02-28T00:58:32.347Z,0.00
2019-02-28T00:59:32.459Z,0.00
2019-02-28T01:00:32.172Z,0.00
2019-02-28T01:01:32.099Z,0.00
2019-02-28T01:02:32.009Z,0.00
2019-02-28T01:03:31.924Z,0.00
2019-02-28T01:04:31.834Z,0.00
2019-02-28T01:05:31.772Z,0.00
2019-02-28T01:06:31.672Z,0.00
2019-02-28T01:07:31.584Z,0.00
2019-02-28T01:08:31.499Z,0.00
2019-02-28T01:09:31.425Z,0.00
2019-02-28T01:10:31.335Z,0.00
2019-02-28T01:11:31.302Z,0.00
2019-02-28T01:12:31.173Z,0.00
2019-02-28T01:13:31.073Z,0.00
2019-02-28T01:14:32.480Z,0.00
2019-02-28T01:15:30.913Z,0.00
2019-02-28T01:16:30.823Z,0.00
2019-02-28T01:17:30.736Z,0.00
2019-02-28T01:18:34.571Z,0.00
2019-02-28T01:19:30.574Z,0.00
2019-02-28T01:20:30.486Z,0.00
2019-02-28T01:21:30.406Z,0.00
2019-02-28T01:22:30.312Z,0.00
2019-02-28T01:23:30.241Z,0.00
2019-02-28T01:24:34.485Z,0.00
2019-02-28T01:25:30.074Z,0.00
2019-02-28T01:26:30.538Z,0.00
2019-02-28T01:27:29.902Z,0.00
2019-02-28T01:28:29.812Z,0.00
2019-02-28T01:29:29.725Z,0.00
2019-02-28T01:30:29.651Z,0.00
2019-02-28T01:31:29.562Z,0.00
2019-02-28T01:32:29.476Z,0.00
2019-02-28T01:33:29.387Z,0.00
2019-02-28T01:34:32.315Z,0.00
2019-02-28T01:35:29.217Z,0.00
2019-02-28T01:36:29.138Z,0.00
2019-02-28T01:37:29.051Z,0.00
2019-02-28T01:38:28.964Z,0.00
2019-02-28T01:39:29.869Z,0.00
2019-02-28T01:40:28.802Z,0.00
2019-02-28T01:41:29.016Z,0.00
2019-02-28T01:42:28.626Z,0.00
2019-02-28T01:43:28.743Z,0.00
2019-02-28T01:44:28.452Z,0.00
2019-02-28T01:45:28.377Z,0.00
2019-02-28T01:46:28.289Z,0.00
2019-02-28T01:47:28.203Z,0.00
2019-02-28T01:48:28.115Z,0.00
2019-02-28T01:49:28.044Z,0.00
2019-02-28T01:50:29.675Z,0.00
2019-02-28T01:51:27.864Z,0.00
2019-02-28T01:52:27.781Z,0.00
2019-02-28T01:53:27.703Z,0.00
2019-02-28T01:54:28.450Z,0.00
2019-02-28T01:55:29.409Z,0.00
2019-02-28T01:56:27.453Z,0.00
2019-02-28T01:57:27.366Z,0.00
2019-02-28T01:58:27.279Z,0.00
2019-02-28T01:59:27.195Z,0.00
2019-02-28T02:00:27.104Z,0.00
2019-02-28T02:01:28.436Z,0.00
2019-02-28T02:02:26.941Z,0.00
2019-02-28T02:03:26.854Z,0.00
2019-02-28T02:04:26.783Z,0.00
2019-02-28T02:05:26.693Z,0.00
2019-02-28T02:06:26.663Z,0.00
2019-02-28T02:07:26.518Z,0.00
2019-02-28T02:08:26.441Z,0.00
2019-02-28T02:09:26.355Z,0.00
2019-02-28T02:10:26.280Z,0.00
2019-02-28T02:11:26.692Z,0.00
2019-02-28T02:12:26.111Z,0.00
2019-02-28T02:13:26.016Z,0.00
2019-02-28T02:14:25.930Z,0.00
2019-02-28T02:15:25.855Z,0.00
2019-02-28T02:16:27.760Z,0.00
2019-02-28T02:17:25.681Z,0.00
2019-02-28T02:18:25.594Z,0.00
2019-02-28T02:19:25.521Z,0.00
2019-02-28T02:20:26.303Z,0.00
2019-02-28T02:21:25.342Z,0.00
2019-02-28T02:22:25.267Z,0.00
2019-02-28T02:23:25.181Z,0.00
2019-02-28T02:24:27.955Z,0.00
2019-02-28T02:25:25.021Z,0.00
2019-02-28T02:26:24.931Z,0.00
2019-02-28T02:27:24.843Z,0.00
2019-02-28T02:28:27.203Z,0.00
2019-02-28T02:29:24.681Z,0.00
2019-02-28T02:30:24.594Z,0.00
2019-02-28T02:31:28.639Z,0.00
2019-02-28T02:32:24.433Z,0.00
2019-02-28T02:33:24.344Z,0.00
2019-02-28T02:34:28.003Z,0.00
2019-02-28T02:35:24.184Z,0.00
2019-02-28T02:36:24.095Z,0.00
2019-02-28T02:37:26.337Z,0.00
2019-02-28T02:38:23.921Z,0.00
2019-02-28T02:39:23.858Z,0.00
2019-02-28T02:40:24.323Z,0.00
2019-02-28T02:41:23.970Z,0.00
2019-02-28T02:42:23.597Z,0.00
2019-02-28T02:43:23.511Z,0.00
2019-02-28T02:44:23.425Z,0.00
2019-02-28T02:45:23.358Z,0.00
2019-02-28T02:46:23.265Z,0.00
2019-02-28T02:47:23.173Z,0.00
2019-02-28T02:48:23.099Z,0.00
2019-02-28T02:49:23.010Z,0.00
2019-02-28T02:50:22.927Z,0.00
2019-02-28T02:51:22.847Z,0.00
2019-02-28T02:52:27.984Z,0.00
2019-02-28T02:53:22.671Z,0.00
2019-02-28T02:54:22.586Z,0.00
2019-02-28T02:55:28.005Z,0.00
2019-02-28T02:56:22.422Z,0.00
2019-02-28T02:57:22.345Z,0.00
2019-02-28T02:58:26.737Z,0.00
2019-02-28T02:59:22.172Z,0.00
2019-02-28T03:00:22.085Z,0.00
2019-02-28T03:01:23.163Z,0.00
2019-02-28T03:02:21.922Z,0.00
2019-02-28T03:03:21.836Z,0.00
2019-02-28T03:04:23.211Z,0.00
2019-02-28T03:05:21.715Z,0.00
2019-02-28T03:06:21.586Z,0.00
2019-02-28T03:07:24.623Z,0.00
2019-02-28T03:08:21.424Z,0.00
2019-02-28T03:09:21.339Z,0.00
2019-02-28T03:10:21.257Z,0.00
2019-02-28T03:11:24.679Z,0.00
2019-02-28T03:12:21.089Z,0.00
2019-02-28T03:13:20.999Z,0.00
2019-02-28T03:14:20.923Z,0.00
2019-02-28T03:15:26.982Z,0.00
2019-02-28T03:16:20.750Z,0.00
2019-02-28T03:17:20.674Z,0.00
2019-02-28T03:18:20.712Z,0.00
2019-02-28T03:19:20.517Z,0.00
2019-02-28T03:20:20.416Z,0.00
2019-02-28T03:21:20.343Z,0.00
2019-02-28T03:22:20.251Z,0.00
2019-02-28T03:23:20.163Z,0.00
2019-02-28T03:24:20.088Z,0.00
2019-02-28T03:25:20.012Z,0.00
2019-02-28T03:26:19.914Z,0.00
2019-02-28T03:27:20.130Z,0.00
2019-02-28T03:28:19.749Z,0.00
2019-02-28T03:29:19.665Z,0.00
2019-02-28T03:30:27.590Z,0.00
2019-02-28T03:31:19.528Z,0.00
2019-02-28T03:32:19.423Z,0.00
2019-02-28T03:33:27.457Z,0.00
2019-02-28T03:34:19.262Z,0.00
2019-02-28T03:35:19.166Z,0.00
2019-02-28T03:36:19.080Z,0.00
2019-02-28T03:37:19.000Z,0.00
2019-02-28T03:38:18.922Z,0.00
2019-02-28T03:39:24.214Z,0.00
2019-02-28T03:40:18.754Z,0.00
2019-02-28T03:41:18.922Z,0.00
2019-02-28T03:42:18.589Z,0.00
2019-02-28T03:43:18.503Z,0.00
2019-02-28T03:44:21.308Z,0.00
2019-02-28T03:45:18.338Z,0.00
2019-02-28T03:46:18.240Z,0.00
2019-02-28T03:47:22.686Z,0.00
2019-02-28T03:48:18.081Z,0.00
2019-02-28T03:49:17.993Z,0.00
2019-02-28T03:50:21.911Z,0.00
2019-02-28T03:51:17.830Z,0.00
2019-02-28T03:52:17.764Z,0.00
2019-02-28T03:53:20.137Z,0.00
2019-02-28T03:54:17.578Z,0.00
2019-02-28T03:55:17.492Z,0.00
2019-02-28T03:56:17.404Z,0.00
2019-02-28T03:57:17.329Z,0.00
2019-02-28T03:58:17.241Z,0.00
2019-02-28T03:59:18.979Z,0.00
2019-02-28T04:00:17.091Z,0.00
2019-02-28T04:01:16.991Z,0.00
2019-02-28T04:02:20.797Z,0.00
2019-02-28T04:03:16.830Z,0.00
2019-02-28T04:04:16.742Z,0.00
2019-02-28T04:05:16.656Z,0.00
2019-02-28T04:06:16.573Z,0.00
2019-02-28T04:07:17.090Z,0.00
2019-02-28T04:08:16.404Z,0.00
2019-02-28T04:09:16.319Z,0.00
2019-02-28T04:10:16.746Z,0.00
2019-02-28T04:11:16.154Z,0.00
2019-02-28T04:12:16.071Z,0.00
2019-02-28T04:13:19.217Z,0.00
2019-02-28T04:14:15.942Z,0.00
2019-02-28T04:15:15.819Z,0.00
2019-02-28T04:16:15.731Z,0.00
2019-02-28T04:17:15.655Z,0.00
2019-02-28T04:18:15.570Z,0.00
2019-02-28T04:19:21.292Z,0.00
2019-02-28T04:20:15.419Z,0.00
2019-02-28T04:21:15.473Z,0.00
2019-02-28T04:22:15.230Z,0.00
2019-02-28T04:23:15.156Z,0.00
2019-02-28T04:24:15.070Z,0.00
2019-02-28T04:25:14.982Z,0.00
2019-02-28T04:26:14.895Z,0.00
2019-02-28T04:27:14.819Z,0.00
2019-02-28T04:28:18.728Z,0.00
2019-02-28T04:29:14.646Z,0.00
2019-02-28T04:30:14.574Z,0.00
2019-02-28T04:31:18.859Z,0.00
2019-02-28T04:32:14.397Z,0.00
2019-02-28T04:33:14.320Z,0.00
2019-02-28T04:34:14.461Z,0.00
2019-02-28T04:35:14.146Z,0.00
2019-02-28T04:36:14.056Z,0.00
2019-02-28T04:37:13.983Z,0.00
2019-02-28T04:38:13.896Z,0.00
2019-02-28T04:39:13.806Z,0.00
2019-02-28T04:40:13.721Z,0.00
2019-02-28T04:41:13.900Z,0.00
2019-02-28T04:42:13.570Z,0.00
2019-02-28T04:43:13.471Z,0.00
2019-02-28T04:44:15.388Z,0.00
2019-02-28T04:45:13.311Z,0.00
2019-02-28T04:46:13.222Z,0.00
2019-02-28T04:47:13.134Z,0.00
2019-02-28T04:48:14.028Z,0.00
2019-02-28T04:49:12.971Z,0.00
2019-02-28T04:50:12.888Z,0.00
2019-02-28T04:51:12.808Z,0.00
2019-02-28T04:52:12.875Z,0.00
2019-02-28T04:53:12.636Z,0.00
2019-02-28T04:54:12.574Z,0.00
2019-02-28T04:55:12.472Z,0.00
2019-02-28T04:56:12.385Z,0.00
2019-02-28T04:57:12.297Z,0.00
2019-02-28T04:58:12.223Z,0.00
2019-02-28T04:59:12.136Z,0.00
2019-02-28T05:00:12.051Z,0.00
2019-02-28T05:01:12.581Z,0.00
2019-02-28T05:02:11.898Z,0.00
2019-02-28T05:03:11.798Z,0.00
2019-02-28T05:04:11.710Z,0.00
2019-02-28T05:05:12.786Z,0.00
2019-02-28T05:06:11.549Z,0.00
2019-02-28T05:07:11.460Z,0.00
2019-02-28T05:08:11.375Z,0.00
2019-02-28T05:09:14.539Z,0.00
2019-02-28T05:10:11.210Z,0.00
2019-02-28T05:11:11.123Z,0.00
2019-02-28T05:12:11.059Z,0.00
2019-02-28T05:13:11.385Z,0.00
2019-02-28T05:14:10.878Z,0.00
2019-02-28T05:15:10.785Z,0.00
2019-02-28T05:16:12.355Z,0.00
2019-02-28T05:17:10.626Z,0.00
2019-02-28T05:18:10.549Z,0.00
2019-02-28T05:19:10.450Z,0.00
2019-02-28T05:20:11.024Z,0.00
2019-02-28T05:21:10.286Z,0.00
2019-02-28T05:22:10.199Z,0.00
2019-02-28T05:23:10.124Z,0.00
2019-02-28T05:24:10.039Z,0.00
2019-02-28T05:25:09.952Z,0.00
2019-02-28T05:26:09.862Z,0.00
2019-02-28T05:27:09.787Z,0.00
2019-02-28T05:28:09.700Z,0.00
2019-02-28T05:29:11.834Z,0.00
2019-02-28T05:30:09.537Z,0.00
2019-02-28T05:31:09.450Z,0.00
2019-02-28T05:32:09.375Z,0.00
2019-02-28T05:33:09.278Z,0.00
2019-02-28T05:34:09.201Z,0.00
2019-02-28T05:35:09.117Z,0.00
2019-02-28T05:36:09.026Z,0.00
2019-02-28T05:37:12.123Z,0.00
2019-02-28T05:38:08.863Z,0.00
2019-02-28T05:39:08.777Z,0.00
2019-02-28T05:40:08.688Z,0.00
2019-02-28T05:41:08.853Z,0.00
2019-02-28T05:42:08.527Z,0.00
2019-02-28T05:43:08.446Z,0.00
2019-02-28T05:44:08.358Z,0.00
2019-02-28T05:45:08.278Z,0.00
2019-02-28T05:46:08.189Z,0.00
2019-02-28T05:47:08.103Z,0.00
2019-02-28T05:48:08.027Z,0.00
2019-02-28T05:49:08.773Z,0.00
2019-02-28T05:50:07.854Z,0.00
2019-02-28T05:51:07.765Z,0.00
2019-02-28T05:52:07.679Z,0.00
2019-02-28T05:53:09.293Z,5.63
2019-02-28T05:54:07.515Z,5.63
2019-02-28T05:55:07.428Z,5.63
2019-02-28T05:56:07.352Z,5.63
2019-02-28T05:57:08.088Z,5.63
2019-02-28T05:58:07.178Z,5.63
2019-02-28T05:59:07.091Z,5.63
2019-02-28T06:00:07.018Z,5.63
2019-02-28T06:01:08.718Z,5.63
2019-02-28T06:02:06.855Z,11.25
2019-02-28T06:03:06.757Z,11.25
2019-02-28T06:04:06.680Z,11.25
2019-02-28T06:05:08.376Z,11.25
2019-02-28T06:06:08.012Z,11.25
2019-02-28T06:07:06.417Z,11.25
2019-02-28T06:08:06.341Z,16.88
2019-02-28T06:09:06.254Z,16.88
2019-02-28T06:10:06.169Z,16.88
2019-02-28T06:11:06.082Z,16.88
2019-02-28T06:12:06.677Z,16.88
2019-02-28T06:13:05.917Z,16.88
2019-02-28T06:14:05.831Z,22.50
2019-02-28T06:15:05.756Z,22.50
2019-02-28T06:16:11.326Z,22.50
2019-02-28T06:17:05.581Z,22.50
2019-02-28T06:18:05.492Z,22.50
2019-02-28T06:19:08.376Z,28.13
2019-02-28T06:20:05.331Z,28.13
2019-02-28T06:21:05.244Z,28.13
2019-02-28T06:22:05.157Z,28.13
2019-02-28T06:23:06.389Z,28.13
2019-02-28T06:24:04.993Z,33.75
2019-02-28T06:25:04.911Z,33.75
2019-02-28T06:26:04.826Z,33.75
2019-02-28T06:27:06.606Z,33.75
2019-02-28T06:28:04.657Z,33.75
2019-02-28T06:29:04.960Z,39.38
2019-02-28T06:30:04.507Z,39.38
2019-02-28T06:31:04.411Z,39.38
2019-02-28T06:32:04.318Z,39.38
2019-02-28T06:33:04.236Z,45.00
2019-02-28T06:34:05.695Z,45.00
2019-02-28T06:35:04.070Z,45.00
2019-02-28T06:36:04.620Z,45.00
2019-02-28T06:37:04.519Z,45.00
2019-02-28T06:38:06.596Z,50.63
2019-02-28T06:39:03.735Z,50.63
2019-02-28T06:40:03.646Z,50.63
2019-02-28T06:41:04.303Z,50.63
2019-02-28T06:42:03.500Z,50.63
2019-02-28T06:43:03.408Z,56.25
2019-02-28T06:44:03.308Z,56.25
2019-02-28T06:45:03.788Z,56.25
2019-02-28T06:46:03.754Z,61.88
2019-02-28T06:47:03.059Z,61.88
2019-02-28T06:48:02.973Z,67.50
2019-02-28T06:49:06.987Z,67.50
2019-02-28T06:50:02.809Z,67.50
2019-02-28T06:51:02.735Z,67.50
2019-02-28T06:52:02.635Z,67.50
2019-02-28T06:53:02.560Z,73.13
2019-02-28T06:54:04.358Z,73.13
2019-02-28T06:55:02.385Z,73.13
2019-02-28T06:56:02.311Z,73.13
2019-02-28T06:57:02.244Z,73.13
2019-02-28T06:58:02.137Z,73.13
2019-02-28T06:59:04.937Z,78.75
2019-02-28T07:00:01.975Z,78.75
2019-02-28T07:01:02.136Z,84.38
2019-02-28T07:02:01.797Z,84.38
2019-02-28T07:03:03.306Z,84.38
2019-02-28T07:04:01.636Z,90.00
2019-02-28T07:05:01.547Z,90.00
2019-02-28T07:06:01.988Z,95.63
2019-02-28T07:07:01.387Z,101.25
2019-02-28T07:08:01.300Z,106.88
2019-02-28T07:09:02.496Z,106.88
2019-02-28T07:10:01.137Z,106.88
2019-02-28T07:11:01.048Z,112.50
2019-02-28T07:12:00.961Z,118.13
2019-02-28T07:13:03.989Z,129.38
2019-02-28T07:14:00.798Z,135.00
2019-02-28T07:15:00.716Z,135.00
2019-02-28T07:16:00.639Z,135.00
2019-02-28T07:17:00.549Z,140.63
2019-02-28T07:18:00.462Z,140.63
2019-02-28T07:19:00.388Z,140.63
2019-02-28T07:20:01.979Z,140.63
2019-02-28T07:21:00.221Z,146.25
2019-02-28T07:22:00.125Z,146.25
2019-02-28T07:23:00.050Z,151.88
2019-02-28T07:24:02.476Z,163.13
2019-02-28T07:24:59.875Z,168.75
2019-02-28T07:25:59.802Z,174.38
2019-02-28T07:26:59.713Z,180.00
2019-02-28T07:28:01.550Z,185.63
2019-02-28T07:28:59.550Z,185.63
2019-02-28T07:29:59.464Z,191.25
2019-02-28T07:30:59.376Z,191.25
2019-02-28T07:32:01.236Z,185.63
2019-02-28T07:32:59.215Z,191.25
2019-02-28T07:33:59.138Z,185.63
2019-02-28T07:34:59.051Z,180.00
2019-02-28T07:35:58.976Z,191.25
2019-02-28T07:36:58.889Z,191.25
2019-02-28T07:37:58.804Z,191.25
2019-02-28T07:39:01.332Z,185.63
2019-02-28T07:39:58.639Z,191.25
2019-02-28T07:40:58.818Z,196.88
2019-02-28T07:41:58.892Z,191.25
2019-02-28T07:42:58.391Z,185.63
2019-02-28T07:43:59.095Z,185.63
2019-02-28T07:44:58.990Z,185.63
2019-02-28T07:45:58.140Z,185.63
2019-02-28T07:46:58.065Z,174.38
2019-02-28T07:47:57.978Z,185.63
2019-02-28T07:49:00.910Z,185.63
2019-02-28T07:49:57.821Z,185.63
2019-02-28T07:50:59.207Z,180.00
2019-02-28T07:51:57.980Z,174.38
2019-02-28T07:52:57.566Z,168.75
2019-02-28T07:53:57.546Z,157.50
2019-02-28T07:54:57.403Z,151.88
2019-02-28T07:55:57.338Z,151.88
2019-02-28T07:56:57.241Z,157.50
2019-02-28T07:57:57.166Z,157.50
2019-02-28T07:58:57.082Z,157.50
2019-02-28T07:59:56.995Z,151.88
2019-02-28T08:00:56.918Z,151.88
2019-02-28T08:01:59.868Z,151.88
2019-02-28T08:02:56.753Z,151.88
2019-02-28T08:03:56.667Z,151.88
2019-02-28T08:04:56.592Z,151.88
2019-02-28T08:05:56.504Z,157.50
2019-02-28T08:06:56.417Z,151.88
2019-02-28T08:07:56.391Z,157.50
2019-02-28T08:08:56.255Z,157.50
2019-02-28T08:09:58.043Z,157.50
2019-02-28T08:10:56.094Z,163.13
2019-02-28T08:11:56.732Z,163.13
2019-02-28T08:12:55.931Z,168.75
2019-02-28T08:13:55.844Z,174.38
2019-02-28T08:14:55.768Z,180.00
2019-02-28T08:15:56.427Z,174.38
2019-02-28T08:16:55.593Z,185.63
2019-02-28T08:17:55.518Z,191.25
2019-02-28T08:18:55.430Z,196.88
2019-02-28T08:19:58.686Z,202.50
2019-02-28T08:20:55.269Z,213.75
2019-02-28T08:21:55.181Z,225.00
2019-02-28T08:22:56.642Z,225.00
2019-02-28T08:23:55.021Z,225.00
2019-02-28T08:24:54.948Z,230.63
2019-02-28T08:25:54.873Z,236.25
2019-02-28T08:26:54.769Z,236.25
2019-02-28T08:27:59.183Z,247.50
2019-02-28T08:28:54.609Z,236.25
2019-02-28T08:29:54.532Z,264.38
2019-02-28T08:30:55.360Z,270.00
2019-02-28T08:31:54.357Z,275.63
2019-02-28T08:32:54.282Z,286.88
2019-02-28T08:33:54.195Z,292.50
2019-02-28T08:34:55.591Z,298.13
2019-02-28T08:35:54.032Z,292.50
2019-02-28T08:36:53.947Z,275.63
2019-02-28T08:37:57.098Z,275.63
2019-02-28T08:38:53.782Z,286.88
2019-02-28T08:39:53.708Z,281.25
2019-02-28T08:40:53.621Z,281.25
2019-02-28T08:41:53.546Z,286.88
2019-02-28T08:42:53.458Z,281.25
2019-02-28T08:43:53.383Z,281.25
2019-02-28T08:44:58.106Z,281.25
2019-02-28T08:45:53.209Z,275.63
2019-02-28T08:46:53.133Z,270.00
2019-02-28T08:47:56.726Z,286.88
2019-02-28T08:48:52.974Z,275.63
2019-02-28T08:49:52.890Z,275.63
2019-02-28T08:50:55.604Z,270.00
2019-02-28T08:51:52.723Z,275.63
2019-02-28T08:52:52.649Z,292.50
2019-02-28T08:53:52.559Z,286.88
2019-02-28T08:54:52.485Z,286.88
2019-02-28T08:55:52.399Z,298.13
2019-02-28T08:56:52.324Z,292.50
2019-02-28T08:57:55.913Z,303.75
2019-02-28T08:58:52.160Z,303.75
2019-02-28T08:59:52.507Z,303.75
2019-02-28T09:00:52.249Z,309.38
2019-02-28T09:01:51.913Z,309.38
2019-02-28T09:02:52.943Z,298.13
2019-02-28T09:03:51.749Z,275.63
2019-02-28T09:04:51.682Z,264.38
2019-02-28T09:05:51.598Z,258.75
2019-02-28T09:06:51.510Z,264.38
2019-02-28T09:07:52.061Z,258.75
2019-02-28T09:08:51.349Z,270.00
2019-02-28T09:09:51.275Z,258.75
2019-02-28T09:10:51.186Z,275.63
2019-02-28T09:11:52.786Z,236.25
2019-02-28T09:12:51.025Z,253.13
2019-02-28T09:13:50.954Z,247.50
2019-02-28T09:14:51.945Z,253.13
2019-02-28T09:15:50.787Z,264.38
2019-02-28T09:16:50.713Z,275.63
2019-02-28T09:17:50.627Z,292.50
2019-02-28T09:18:50.550Z,298.13
2019-02-28T09:19:50.464Z,315.00
2019-02-28T09:20:50.387Z,309.38
2019-02-28T09:21:52.748Z,326.25
2019-02-28T09:22:50.249Z,326.25
2019-02-28T09:23:50.151Z,326.25
2019-02-28T09:24:50.063Z,326.25
2019-02-28T09:25:49.987Z,331.88
2019-02-28T09:26:49.913Z,320.63
2019-02-28T09:27:49.826Z,320.63
2019-02-28T09:28:49.754Z,331.88
2019-02-28T09:29:54.518Z,320.63
2019-02-28T09:30:49.590Z,298.13
2019-02-28T09:31:49.512Z,326.25
2019-02-28T09:32:49.437Z,281.25
2019-02-28T09:33:49.351Z,281.25
2019-02-28T09:34:49.271Z,281.25
2019-02-28T09:35:49.191Z,286.88
2019-02-28T09:36:49.113Z,270.00
2019-02-28T09:37:49.026Z,258.75
2019-02-28T09:38:56.857Z,270.00
2019-02-28T09:39:51.325Z,298.13
2019-02-28T09:40:48.789Z,275.63
2019-02-28T09:41:48.714Z,281.25
2019-02-28T09:42:51.129Z,286.88
2019-02-28T09:43:48.553Z,286.88
2019-02-28T09:44:48.465Z,298.13
2019-02-28T09:45:48.389Z,292.50
2019-02-28T09:46:50.678Z,298.13
2019-02-28T09:47:48.230Z,303.75
2019-02-28T09:48:48.159Z,303.75
2019-02-28T09:49:48.086Z,315.00
2019-02-28T09:50:47.990Z,309.38
2019-02-28T09:51:47.903Z,298.13
2019-02-28T09:52:47.831Z,303.75
2019-02-28T09:53:50.326Z,298.13
2019-02-28T09:54:47.665Z,315.00
2019-02-28T09:55:47.591Z,315.00
2019-02-28T09:56:47.503Z,320.63
2019-02-28T09:57:50.443Z,303.75
2019-02-28T09:58:47.340Z,298.13
2019-02-28T09:59:47.267Z,309.38
2019-02-28T10:00:50.272Z,309.38
2019-02-28T10:01:47.104Z,303.75
2019-02-28T10:02:47.017Z,281.25
2019-02-28T10:03:46.955Z,320.63
2019-02-28T10:04:46.868Z,303.75
2019-02-28T10:05:46.780Z,309.38
2019-02-28T10:06:48.564Z,309.38
2019-02-28T10:07:46.617Z,315.00
2019-02-28T10:08:46.555Z,331.88
2019-02-28T10:09:47.266Z,343.13
2019-02-28T10:10:46.380Z,337.50
2019-02-28T10:11:46.292Z,348.75
2019-02-28T10:12:46.217Z,343.13
2019-02-28T10:13:46.131Z,354.38
2019-02-28T10:14:46.055Z,343.13
2019-02-28T10:15:45.969Z,354.38
2019-02-28T10:16:45.892Z,371.25
2019-02-28T10:17:45.818Z,348.75
2019-02-28T10:18:45.731Z,343.13
2019-02-28T10:19:46.112Z,376.88
2019-02-28T10:20:45.568Z,371.25
2019-02-28T10:21:51.686Z,343.13
2019-02-28T10:22:47.319Z,331.88
2019-02-28T10:23:45.337Z,382.50
2019-02-28T10:24:45.243Z,410.63
2019-02-28T10:25:45.168Z,444.38
2019-02-28T10:26:45.085Z,388.13
2019-02-28T10:27:45.011Z,371.25
2019-02-28T10:28:44.921Z,371.25
2019-02-28T10:29:44.844Z,365.63
2019-02-28T10:30:47.174Z,348.75
2019-02-28T10:31:44.683Z,343.13
2019-02-28T10:32:44.607Z,326.25
2019-02-28T10:33:44.519Z,326.25
2019-02-28T10:34:44.444Z,315.00
2019-02-28T10:35:44.359Z,315.00
2019-02-28T10:36:47.396Z,315.00
2019-02-28T10:37:44.197Z,331.88
2019-02-28T10:38:44.119Z,315.00
2019-02-28T10:39:44.045Z,286.88
2019-02-28T10:40:43.958Z,281.25
2019-02-28T10:41:43.883Z,270.00
2019-02-28T10:42:43.795Z,264.38
2019-02-28T10:43:43.720Z,286.88
2019-02-28T10:44:43.634Z,292.50
2019-02-28T10:45:43.559Z,315.00
2019-02-28T10:46:43.471Z,360.00
2019-02-28T10:47:43.396Z,343.13
2019-02-28T10:48:50.839Z,371.25
2019-02-28T10:49:43.235Z,348.75
2019-02-28T10:50:43.160Z,337.50
2019-02-28T10:51:47.183Z,343.13
2019-02-28T10:52:42.997Z,331.88
2019-02-28T10:53:42.911Z,337.50
2019-02-28T10:54:42.838Z,371.25
2019-02-28T10:55:42.746Z,393.75
2019-02-28T10:56:42.671Z,393.75
2019-02-28T10:57:42.596Z,360.00
2019-02-28T10:58:42.510Z,360.00
2019-02-28T10:59:42.423Z,399.38
2019-02-28T11:00:42.360Z,410.63
2019-02-28T11:01:42.726Z,416.25
2019-02-28T11:02:42.196Z,393.75
2019-02-28T11:03:42.100Z,388.13
2019-02-28T11:04:43.721Z,399.38
2019-02-28T11:05:41.950Z,421.88
2019-02-28T11:06:41.860Z,444.38
2019-02-28T11:07:41.786Z,483.75
2019-02-28T11:08:44.433Z,483.75
2019-02-28T11:09:41.623Z,517.50
2019-02-28T11:10:41.536Z,540.00
2019-02-28T11:11:42.600Z,495.00
2019-02-28T11:12:41.387Z,478.13
2019-02-28T11:13:41.298Z,500.63
2019-02-28T11:14:41.223Z,562.50
2019-02-28T11:15:41.142Z,596.25
2019-02-28T11:16:41.062Z,585.00
2019-02-28T11:17:40.986Z,528.75
2019-02-28T11:18:41.919Z,483.75
2019-02-28T11:19:40.824Z,506.25
2019-02-28T11:20:40.988Z,472.50
2019-02-28T11:21:40.662Z,433.13
2019-02-28T11:22:40.966Z,455.63
2019-02-28T11:23:40.499Z,472.50
2019-02-28T11:24:40.424Z,500.63
2019-02-28T11:25:40.338Z,517.50
2019-02-28T11:26:41.298Z,556.88
2019-02-28T11:27:40.175Z,579.38
2019-02-28T11:28:40.113Z,551.25
2019-02-28T11:29:40.025Z,489.38
2019-02-28T11:30:44.265Z,478.13
2019-02-28T11:31:39.871Z,540.00
2019-02-28T11:32:39.791Z,596.25
2019-02-28T11:33:40.336Z,573.75
2019-02-28T11:34:39.630Z,585.00
2019-02-28T11:35:39.550Z,663.75
2019-02-28T11:36:39.470Z,810.00
2019-02-28T11:37:42.259Z,826.88
2019-02-28T11:38:39.314Z,804.38
2019-02-28T11:39:39.225Z,804.38
2019-02-28T11:40:40.418Z,860.63
2019-02-28T11:41:39.076Z,798.75
2019-02-28T11:42:38.997Z,731.25
2019-02-28T11:43:38.915Z,697.50
2019-02-28T11:44:38.840Z,686.25
2019-02-28T11:45:38.764Z,742.50
2019-02-28T11:46:38.678Z,753.75
2019-02-28T11:47:38.602Z,720.00
2019-02-28T11:48:38.528Z,725.63
2019-02-28T11:49:38.452Z,776.25
2019-02-28T11:50:41.218Z,838.13
2019-02-28T11:51:38.291Z,759.38
2019-02-28T11:52:38.215Z,821.25
2019-02-28T11:53:40.301Z,804.38
2019-02-28T11:54:38.066Z,866.25
2019-02-28T11:55:37.992Z,781.88
2019-02-28T11:56:37.905Z,793.13
2019-02-28T11:57:41.031Z,866.25
2019-02-28T11:58:37.753Z,838.13
2019-02-28T11:59:37.699Z,815.63
2019-02-28T12:00:37.614Z,855.00
2019-02-28T12:01:37.528Z,703.13
2019-02-28T12:02:37.453Z,798.75
2019-02-28T12:03:37.366Z,990.00
2019-02-28T12:04:37.510Z,883.13
2019-02-28T12:05:37.217Z,883.13
2019-02-28T12:06:37.142Z,742.50
2019-02-28T12:07:37.067Z,568.13
2019-02-28T12:08:36.994Z,573.75
2019-02-28T12:09:36.907Z,866.25
2019-02-28T12:10:36.829Z,736.88
2019-02-28T12:11:37.205Z,933.75
2019-02-28T12:12:36.680Z,742.50
2019-02-28T12:13:36.607Z,990.00
2019-02-28T12:14:36.543Z,1181.25
2019-02-28T12:15:38.158Z,1136.25
2019-02-28T12:16:36.373Z,1153.13
2019-02-28T12:17:36.293Z,1192.50
2019-02-28T12:18:39.493Z,1276.88
2019-02-28T12:19:36.144Z,1276.88
2019-02-28T12:20:36.073Z,1299.38
2019-02-28T12:21:38.127Z,1321.88
2019-02-28T12:22:35.918Z,1389.38
2019-02-28T12:23:35.848Z,1333.13
2019-02-28T12:24:35.757Z,1338.75
2019-02-28T12:25:35.687Z,1316.25
2019-02-28T12:26:35.606Z,1327.50
2019-02-28T12:27:35.531Z,1310.63
2019-02-28T12:28:38.218Z,1293.75
2019-02-28T12:29:35.393Z,1198.13
2019-02-28T12:30:35.306Z,1226.25
2019-02-28T12:31:35.767Z,804.38
2019-02-28T12:32:35.157Z,871.88
2019-02-28T12:33:35.083Z,843.75
2019-02-28T12:34:35.014Z,888.75
2019-02-28T12:35:40.011Z,1012.50
2019-02-28T12:36:34.845Z,990.00
2019-02-28T12:37:34.771Z,1035.00
2019-02-28T12:38:34.696Z,1164.38
2019-02-28T12:39:36.382Z,1209.38
2019-02-28T12:40:34.550Z,1215.00
2019-02-28T12:41:34.475Z,1215.00
2019-02-28T12:42:34.585Z,1411.88
2019-02-28T12:43:34.321Z,1321.88
2019-02-28T12:44:34.234Z,1316.25
2019-02-28T12:45:34.161Z,1338.75
2019-02-28T12:46:34.083Z,1316.25
2019-02-28T12:47:34.009Z,1321.88
2019-02-28T12:48:33.934Z,1288.13
2019-02-28T12:49:33.860Z,1288.13
2019-02-28T12:50:33.783Z,1215.00
2019-02-28T12:51:36.582Z,1147.50